Time;durP1;ratioP1;P1;durP2;ratioP2;P2;SDS_P1;SDS_P2;PMS_P1;PMS_P2;Temp;Humidity;BMP_temperature;BMP_pressure;BME280_temperature;BME280_humidity;BME280_pressure;Samples;Min_cycle;Max_cycle;Signal;HPM_P1;HPM_P2
2023/11/03 00:02:15;;;;;;;2.90;0.70;;;;;;;10.67;100.00;97859.53;5266717;28;20028;-72
2023/11/03 00:04:45;;;;;;;2.10;0.40;;;;;;;10.67;100.00;97853.38;5264992;28;20029;-72
2023/11/03 00:07:17;;;;;;;1.30;0.45;;;;;;;10.60;100.00;97872.28;5267389;28;20024;-73
2023/11/03 00:09:48;;;;;;;2.65;0.73;;;;;;;10.72;100.00;97861.50;5265735;28;20028;-72
2023/11/03 00:12:18;;;;;;;3.17;0.70;;;;;;;10.65;100.00;97855.50;5266788;28;20031;-72
2023/11/03 00:14:49;;;;;;;2.45;1.08;;;;;;;10.56;100.00;97857.72;5263282;28;20028;-72
2023/11/03 00:17:19;;;;;;;5.03;1.00;;;;;;;10.62;100.00;97854.91;5267535;28;20040;-72
2023/11/03 00:19:50;;;;;;;2.42;0.65;;;;;;;10.71;100.00;97862.56;5261956;28;20024;-72
2023/11/03 00:22:20;;;;;;;1.85;0.65;;;;;;;10.61;100.00;97852.47;5266669;28;20488;-72
2023/11/03 00:24:51;;;;;;;6.13;0.60;;;;;;;10.51;100.00;97879.88;5261870;28;20026;-72
2023/11/03 00:27:23;;;;;;;2.90;0.68;;;;;;;10.54;100.00;97862.50;5266578;28;20712;-72
2023/11/03 00:29:54;;;;;;;3.10;0.65;;;;;;;10.54;100.00;97849.09;5266063;28;20024;-72
2023/11/03 00:32:24;;;;;;;3.90;0.60;;;;;;;10.58;100.00;97858.28;5266295;28;20031;-72
2023/11/03 00:34:55;;;;;;;2.85;0.68;;;;;;;10.58;100.00;97864.47;5266158;28;20051;-73
2023/11/03 00:37:25;;;;;;;6.38;0.80;;;;;;;10.46;100.00;97882.47;5264367;28;20024;-73
2023/11/03 00:39:56;;;;;;;3.08;0.57;;;;;;;10.46;100.00;97887.00;5265574;28;20103;-73
2023/11/03 00:42:27;;;;;;;5.85;0.50;;;;;;;10.46;100.00;97887.81;5264809;28;20044;-73
2023/11/03 00:44:58;;;;;;;2.88;0.75;;;;;;;10.55;100.00;97885.59;5265112;28;20102;-73
2023/11/03 00:47:29;;;;;;;5.28;0.77;;;;;;;10.53;100.00;97893.03;5263295;28;20058;-73
2023/11/03 00:50:00;;;;;;;1.40;0.57;;;;;;;10.44;100.00;97906.03;5265862;28;20476;-73
2023/11/03 00:52:30;;;;;;;2.45;0.60;;;;;;;10.58;100.00;97922.63;5265641;28;20099;-72
2023/11/03 00:55:01;;;;;;;2.75;0.60;;;;;;;10.49;100.00;97913.31;5261862;28;20403;-72
2023/11/03 00:57:32;;;;;;;2.88;0.75;;;;;;;10.50;100.00;97918.47;5265942;28;20431;-72
2023/11/03 01:00:05;;;;;;;2.70;0.70;;;;;;;10.60;100.00;97929.41;5268807;28;20058;-72
2023/11/03 01:02:35;;;;;;;2.10;0.47;;;;;;;10.55;100.00;97923.94;5265628;28;20027;-72
2023/11/03 01:05:06;;;;;;;5.30;0.80;;;;;;;10.69;100.00;97939.72;5263359;28;20040;-72
2023/11/03 01:07:38;;;;;;;3.13;0.80;;;;;;;10.71;100.00;97949.19;5265281;28;20024;-72
2023/11/03 01:10:15;;;;;;;5.15;0.80;;;;;;;10.69;100.00;97955.81;5261877;28;20077;-72
2023/11/03 01:12:45;;;;;;;4.90;0.85;;;;;;;10.60;100.00;97953.53;5263494;28;20012;-72
2023/11/03 01:15:19;;;;;;;5.15;0.63;;;;;;;10.59;100.00;97965.31;5264549;28;20047;-72
2023/11/03 01:17:50;;;;;;;6.93;1.77;;;;;;;10.52;100.00;97953.88;5265403;28;20034;-72
2023/11/03 01:20:27;;;;;;;2.88;0.65;;;;;;;10.70;100.00;97986.97;5265709;28;20081;-72
2023/11/03 01:22:59;;;;;;;3.08;0.80;;;;;;;10.62;100.00;97977.41;5260415;28;20110;-72
2023/11/03 01:25:29;;;;;;;8.30;1.25;;;;;;;10.56;100.00;97973.00;5260422;28;20077;-72
2023/11/03 01:28:00;;;;;;;2.80;0.50;;;;;;;10.55;100.00;97961.47;5270744;28;20024;-72
2023/11/03 01:30:30;;;;;;;7.75;1.40;;;;;;;10.63;100.00;97974.47;5270229;28;20540;-72
2023/11/03 01:33:03;;;;;;;4.00;0.85;;;;;;;10.44;100.00;97990.94;5261678;28;20650;-72
2023/11/03 01:35:33;;;;;;;4.40;1.08;;;;;;;10.56;100.00;98003.28;5269511;28;20667;-72
2023/11/03 01:38:04;;;;;;;4.40;1.02;;;;;;;10.45;100.00;98011.34;5266558;28;20031;-73
2023/11/03 01:40:34;;;;;;;5.72;1.00;;;;;;;10.35;100.00;97998.53;5269248;28;20465;-72
2023/11/03 01:43:05;;;;;;;4.00;1.05;;;;;;;10.56;100.00;98003.28;5265582;28;20034;-72
2023/11/03 01:45:36;;;;;;;4.30;1.73;;;;;;;10.60;100.00;98009.81;5264234;28;20024;-72
2023/11/03 01:48:07;;;;;;;6.30;1.08;;;;;;;10.47;100.00;97998.53;5269259;28;20024;-72
2023/11/03 01:50:40;;;;;;;3.85;0.77;;;;;;;10.54;100.00;97993.84;5264498;28;20538;-73
2023/11/03 01:53:15;;;;;;;6.22;1.60;;;;;;;10.62;100.00;98002.34;5265230;28;20034;-72
2023/11/03 01:55:46;;;;;;;4.68;1.30;;;;;;;10.54;100.00;97997.38;5268681;28;20024;-72
2023/11/03 01:58:17;;;;;;;2.85;0.85;;;;;;;10.66;100.00;98004.56;5269109;28;20015;-71
2023/11/03 02:00:48;;;;;;;7.25;0.82;;;;;;;10.63;100.00;98003.97;5265869;27;20023;-72
2023/11/03 02:03:19;;;;;;;4.95;0.88;;;;;;;10.73;100.00;98006.06;5268938;28;20123;-72
2023/11/03 02:05:49;;;;;;;5.60;1.35;;;;;;;10.63;100.00;97993.25;5265392;28;20105;-71
2023/11/03 02:08:20;;;;;;;3.85;0.85;;;;;;;10.57;100.00;97991.50;5268922;28;20475;-72
2023/11/03 02:10:51;;;;;;;3.92;1.10;;;;;;;10.58;100.00;98003.03;5257566;28;20020;-72
2023/11/03 02:13:21;;;;;;;10.95;1.25;;;;;;;10.50;100.00;97995.38;5264915;28;20012;-72
2023/11/03 02:15:52;;;;;;;5.00;0.93;;;;;;;10.63;100.00;98008.50;5266323;28;20404;-72
2023/11/03 02:18:23;;;;;;;4.57;0.98;;;;;;;10.63;100.00;98021.91;5265415;28;20028;-72
2023/11/03 02:20:53;;;;;;;6.57;1.08;;;;;;;10.52;100.00;98017.41;5267290;28;20024;-71
2023/11/03 02:23:24;;;;;;;4.07;0.82;;;;;;;10.51;100.00;98027.31;5263919;28;20123;-71
2023/11/03 02:25:55;;;;;;;9.35;1.23;;;;;;;10.70;100.00;98037.91;5260345;28;20017;-72
2023/11/03 02:28:25;;;;;;;6.95;1.65;;;;;;;10.65;100.00;98038.59;5263711;28;20734;-71
2023/11/03 02:30:56;;;;;;;4.32;1.08;;;;;;;10.59;100.00;98026.97;5264882;28;20103;-72
2023/11/03 02:33:26;;;;;;;3.22;1.10;;;;;;;10.68;100.00;98040.00;5259793;28;20119;-72
2023/11/03 02:35:57;;;;;;;11.25;1.60;;;;;;;10.78;100.00;98058.97;5263773;28;20430;-72
2023/11/03 02:38:27;;;;;;;7.82;1.60;;;;;;;10.81;100.00;98045.13;5263353;28;20110;-72
2023/11/03 02:40:58;;;;;;;4.40;1.00;;;;;;;10.80;100.00;98041.63;5262817;28;20027;-72
2023/11/03 02:43:28;;;;;;;3.78;1.42;;;;;;;10.72;100.00;98070.66;5261251;28;20527;-72
2023/11/03 02:45:59;;;;;;;8.82;1.48;;;;;;;10.70;100.00;98062.84;5267135;28;20020;-72
2023/11/03 02:48:29;;;;;;;9.30;1.42;;;;;;;10.85;100.00;98075.78;5267288;28;20024;-72
2023/11/03 02:51:00;;;;;;;11.35;2.08;;;;;;;10.68;100.00;98072.97;5262287;28;20057;-72
2023/11/03 02:53:31;;;;;;;5.07;1.25;;;;;;;10.71;100.00;98093.97;5263099;28;20533;-72
2023/11/03 02:56:02;;;;;;;6.40;1.60;;;;;;;10.75;100.00;98097.00;5262611;28;20529;-72
2023/11/03 02:58:36;;;;;;;6.50;1.40;;;;;;;10.88;100.00;98094.06;5264032;28;20095;-72
2023/11/03 03:01:08;;;;;;;7.20;1.20;;;;;;;10.70;100.00;98088.84;5263158;28;20020;-71
2023/11/03 03:03:40;;;;;;;10.90;1.50;;;;;;;10.72;100.00;98094.78;5264980;28;20027;-71
2023/11/03 03:06:11;;;;;;;10.05;2.05;;;;;;;10.71;100.00;98088.59;5262175;28;20101;-71
2023/11/03 03:08:42;;;;;;;10.43;1.98;;;;;;;10.74;100.00;98088.13;5260569;28;20020;-72
2023/11/03 03:11:15;;;;;;;16.02;1.70;;;;;;;10.74;100.00;98098.03;5258224;28;20023;-71
2023/11/03 03:13:46;;;;;;;8.25;1.85;;;;;;;10.91;100.00;98103.53;5267008;28;20417;-72
2023/11/03 03:16:17;;;;;;;6.78;1.23;;;;;;;10.82;100.00;98105.72;5261749;28;20024;-72
2023/11/03 03:18:50;;;;;;;8.13;1.83;;;;;;;10.85;100.00;98116.00;5263139;28;20069;-72
2023/11/03 03:21:21;;;;;;;8.23;1.90;;;;;;;10.79;100.00;98124.97;5262939;28;20020;-72
2023/11/03 03:23:52;;;;;;;7.40;1.60;;;;;;;10.85;100.00;98106.09;5259068;28;20160;-73
2023/11/03 03:26:26;;;;;;;9.73;1.58;;;;;;;10.84;100.00;98108.97;5262468;28;20032;-72
2023/11/03 03:28:56;;;;;;;15.52;2.03;;;;;;;10.77;100.00;98110.97;5262378;28;20844;-72
2023/11/03 03:31:27;;;;;;;9.55;1.45;;;;;;;10.82;100.00;98119.97;5271646;28;20101;-71
2023/11/03 03:33:58;;;;;;;8.70;1.58;;;;;;;10.89;100.00;98115.31;5269720;28;20039;-71
2023/11/03 03:36:28;;;;;;;7.07;1.63;;;;;;;10.91;100.00;98114.25;5266496;28;20024;-74
2023/11/03 03:38:59;;;;;;;11.73;1.92;;;;;;;11.10;100.00;98118.44;5265662;28;20034;-72
2023/11/03 03:41:29;;;;;;;12.27;1.50;;;;;;;10.90;100.00;98118.81;5270273;28;20024;-73
2023/11/03 03:44:00;;;;;;;6.53;1.55;;;;;;;10.94;100.00;98114.56;5262547;28;20028;-73
2023/11/03 03:46:36;;;;;;;9.98;1.45;;;;;;;10.98;100.00;98117.59;5262142;28;20481;-74
2023/11/03 03:49:06;;;;;;;13.48;1.75;;;;;;;10.93;100.00;98123.69;5266342;28;20027;-74
2023/11/03 03:51:37;;;;;;;8.50;1.05;;;;;;;10.93;100.00;98115.63;5269540;28;20043;-73
2023/11/03 03:54:07;;;;;;;11.65;1.50;;;;;;;10.75;100.00;98116.59;5273591;28;20040;-73
2023/11/03 03:56:38;;;;;;;8.63;1.52;;;;;;;10.84;100.00;98123.25;5267100;28;20067;-73
2023/11/03 03:59:08;;;;;;;11.73;1.58;;;;;;;10.81;100.00;98130.94;5270392;28;20035;-73
2023/11/03 04:01:41;;;;;;;6.65;1.20;;;;;;;10.76;100.00;98120.09;5267065;28;20027;-72
2023/11/03 04:04:12;;;;;;;5.68;1.30;;;;;;;10.71;100.00;98128.81;5275911;28;20444;-72
2023/11/03 04:06:45;;;;;;;8.35;1.67;;;;;;;10.52;100.00;98121.94;5268415;28;20465;-71
2023/11/03 04:09:15;;;;;;;6.82;1.50;;;;;;;10.60;100.00;98130.47;5267906;28;20024;-72
2023/11/03 04:11:46;;;;;;;7.95;1.50;;;;;;;10.76;100.00;98133.50;5256852;28;20027;-72
2023/11/03 04:14:16;;;;;;;19.67;2.40;;;;;;;10.77;100.00;98135.13;5273746;28;20090;-71
2023/11/03 04:16:46;;;;;;;6.38;2.00;;;;;;;10.67;100.00;98135.69;5273093;28;20046;-72
2023/11/03 04:19:17;;;;;;;11.13;2.40;;;;;;;10.73;100.00;98148.16;5266843;28;20020;-72
2023/11/03 04:21:47;;;;;;;8.80;1.27;;;;;;;10.74;100.00;98138.25;5263759;28;20027;-72
2023/11/03 04:24:18;;;;;;;10.15;1.85;;;;;;;10.67;100.00;98143.75;5265908;28;20016;-72
2023/11/03 04:26:49;;;;;;;7.93;1.30;;;;;;;10.58;100.00;98143.25;5265616;28;20489;-72
2023/11/03 04:29:19;;;;;;;9.50;1.60;;;;;;;10.56;100.00;98150.72;5266980;28;20047;-73
2023/11/03 04:31:50;;;;;;;6.20;1.33;;;;;;;10.80;100.00;98161.47;5265559;28;20039;-72
2023/11/03 04:34:21;;;;;;;8.10;1.45;;;;;;;10.67;100.00;98161.69;5271535;28;20115;-72
2023/11/03 04:36:51;;;;;;;7.75;1.27;;;;;;;10.71;100.00;98165.56;5267566;28;20043;-71
2023/11/03 04:39:22;;;;;;;5.32;1.40;;;;;;;10.66;100.00;98165.44;5267419;28;20047;-72
2023/11/03 04:41:52;;;;;;;9.68;1.60;;;;;;;10.65;100.00;98161.94;5272524;28;20108;-72
2023/11/03 04:44:23;;;;;;;7.93;1.30;;;;;;;10.73;100.00;98166.13;5270332;28;20105;-72
2023/11/03 04:46:53;;;;;;;9.02;1.45;;;;;;;10.60;100.00;98165.31;5269365;28;20034;-72
2023/11/03 04:49:24;;;;;;;3.97;1.15;;;;;;;10.77;100.00;98167.28;5271789;28;20030;-72
2023/11/03 04:51:55;;;;;;;11.23;1.25;;;;;;;10.65;100.00;98169.16;5263546;28;20020;-73
2023/11/03 04:54:25;;;;;;;11.77;1.33;;;;;;;10.71;100.00;98168.22;5268390;28;20102;-73
2023/11/03 04:56:56;;;;;;;9.90;1.17;;;;;;;10.47;100.00;98165.50;5270346;28;20030;-73
2023/11/03 04:59:26;;;;;;;6.35;1.20;;;;;;;10.54;100.00;98155.53;5265825;28;20020;-73
2023/11/03 05:01:57;;;;;;;7.53;1.20;;;;;;;10.48;100.00;98167.13;5262413;28;20099;-72
2023/11/03 05:04:27;;;;;;;5.43;1.35;;;;;;;10.47;100.00;98168.19;5270199;28;20031;-73
2023/11/03 05:06:58;;;;;;;11.52;1.52;;;;;;;10.47;100.00;98173.56;5272128;28;20020;-73
2023/11/03 05:09:28;;;;;;;6.78;1.40;;;;;;;10.44;100.00;98166.00;5266578;28;20020;-72
2023/11/03 05:11:59;;;;;;;13.35;1.60;;;;;;;10.48;100.00;98171.69;5267182;28;20039;-72
2023/11/03 05:14:30;;;;;;;6.03;1.13;;;;;;;10.47;100.00;98173.56;5267999;28;20017;-72
2023/11/03 05:17:00;;;;;;;9.60;1.25;;;;;;;10.47;100.00;98172.75;5265405;28;20020;-72
2023/11/03 05:19:32;;;;;;;8.82;1.10;;;;;;;10.34;100.00;98160.34;5270039;28;20443;-72
2023/11/03 05:22:03;;;;;;;8.77;1.50;;;;;;;10.46;100.00;98165.75;5268352;28;20012;-72
2023/11/03 05:24:33;;;;;;;9.30;1.55;;;;;;;10.57;100.00;98164.94;5263937;28;20397;-72
2023/11/03 05:27:04;;;;;;;6.68;1.00;;;;;;;10.52;100.00;98162.97;5265247;28;20016;-72
2023/11/03 05:29:34;;;;;;;5.47;1.73;;;;;;;10.50;100.00;98151.66;5266238;28;20020;-72
2023/11/03 05:32:05;;;;;;;7.45;1.40;;;;;;;10.54;100.00;98162.72;5262849;28;20035;-72
2023/11/03 05:34:35;;;;;;;10.77;1.50;;;;;;;10.55;100.00;98164.38;5270063;28;20396;-72
2023/11/03 05:37:06;;;;;;;14.10;1.85;;;;;;;10.46;100.00;98166.56;5270792;28;20051;-72
2023/11/03 05:39:37;;;;;;;10.30;1.30;;;;;;;10.54;100.00;98176.97;5264066;28;20107;-72
2023/11/03 05:42:08;;;;;;;8.35;1.45;;;;;;;10.55;100.00;98177.78;5267198;28;20031;-72
2023/11/03 05:44:38;;;;;;;12.10;1.60;;;;;;;10.52;100.00;98173.69;5261453;28;20023;-72
2023/11/03 05:47:09;;;;;;;7.53;1.30;;;;;;;10.53;100.00;98183.34;5267502;28;20153;-74
2023/11/03 05:49:39;;;;;;;7.03;1.85;;;;;;;10.61;100.00;98190.25;5268126;27;20023;-74
2023/11/03 05:52:10;;;;;;;10.82;2.58;;;;;;;10.48;100.00;98193.13;5266167;28;20026;-74
2023/11/03 05:54:40;;;;;;;10.27;1.95;;;;;;;10.59;100.00;98190.50;5258627;28;20024;-73
2023/11/03 05:57:11;;;;;;;13.35;1.90;;;;;;;10.63;100.00;98193.50;5256782;28;20031;-73
2023/11/03 05:59:41;;;;;;;10.38;1.70;;;;;;;10.55;100.00;98197.34;5258459;28;20026;-73
2023/11/03 06:02:12;;;;;;;13.43;2.22;;;;;;;10.71;100.00;98203.91;5264949;28;20023;-74
2023/11/03 06:04:43;;;;;;;9.10;1.67;;;;;;;10.70;100.00;98213.00;5259127;28;20024;-74
2023/11/03 06:07:14;;;;;;;11.80;1.83;;;;;;;10.67;100.00;98210.78;5266659;28;20035;-75
2023/11/03 06:09:44;;;;;;;8.90;1.88;;;;;;;10.71;100.00;98216.50;5260490;28;20095;-72
2023/11/03 06:12:15;;;;;;;9.63;1.77;;;;;;;10.75;100.00;98215.81;5265233;28;20149;-74
2023/11/03 06:14:45;;;;;;;11.98;1.70;;;;;;;10.66;100.00;98225.22;5266117;28;20058;-74
2023/11/03 06:17:16;;;;;;;8.07;2.38;;;;;;;10.79;100.00;98230.41;5267287;28;20028;-74
2023/11/03 06:19:46;;;;;;;9.90;1.73;;;;;;;10.69;100.00;98231.97;5263984;28;20028;-73
2023/11/03 06:22:17;;;;;;;9.57;1.60;;;;;;;10.71;100.00;98238.75;5263381;28;20016;-73
2023/11/03 06:24:47;;;;;;;13.52;1.90;;;;;;;10.91;100.00;98249.19;5264440;28;20115;-73
2023/11/03 06:27:18;;;;;;;6.70;1.50;;;;;;;10.79;100.00;98243.81;5266528;28;20028;-74
2023/11/03 06:29:48;;;;;;;9.50;1.85;;;;;;;10.85;100.00;98261.66;5268133;28;20020;-74
2023/11/03 06:32:19;;;;;;;11.43;3.25;;;;;;;10.71;100.00;98262.09;5263699;28;20393;-74
2023/11/03 06:34:49;;;;;;;10.32;1.88;;;;;;;10.73;100.00;98259.97;5263384;28;20020;-73
2023/11/03 06:37:19;;;;;;;14.82;2.10;;;;;;;10.69;100.00;98270.34;5262923;28;20070;-74
2023/11/03 06:39:53;;;;;;;11.52;1.48;;;;;;;10.79;100.00;98267.94;5267332;28;20107;-73
2023/11/03 06:42:23;;;;;;;14.50;1.80;;;;;;;10.68;100.00;98274.06;5265791;28;20032;-73
2023/11/03 06:44:54;;;;;;;9.20;1.50;;;;;;;10.76;100.00;98295.22;5262721;28;20024;-72
2023/11/03 06:47:24;;;;;;;17.08;1.70;;;;;;;10.81;100.00;98287.28;5264248;28;20107;-74
2023/11/03 06:49:55;;;;;;;10.55;1.60;;;;;;;10.72;100.00;98298.56;5263449;28;20112;-73
2023/11/03 06:52:26;;;;;;;8.02;1.35;;;;;;;10.71;100.00;98291.59;5266129;28;20518;-73
2023/11/03 06:54:56;;;;;;;9.70;2.00;;;;;;;10.69;100.00;98305.19;5261981;28;20111;-73
2023/11/03 06:57:27;;;;;;;12.18;1.90;;;;;;;10.62;100.00;98294.56;5264222;28;20042;-73
2023/11/03 06:59:57;;;;;;;14.27;1.90;;;;;;;10.59;100.00;98291.53;5260912;28;20023;-74
2023/11/03 07:02:29;;;;;;;14.70;2.38;;;;;;;10.51;100.00;98302.59;5263655;28;20027;-73
2023/11/03 07:05:00;;;;;;;6.50;1.70;;;;;;;10.58;100.00;98316.72;5262860;28;20122;-73
2023/11/03 07:07:30;;;;;;;10.35;2.08;;;;;;;10.73;100.00;98305.56;5264835;28;20562;-74
2023/11/03 07:10:02;;;;;;;13.88;1.85;;;;;;;10.65;100.00;98320.13;5261307;28;20047;-73
2023/11/03 07:12:33;;;;;;;10.00;1.80;;;;;;;10.57;100.00;98318.56;5262959;28;20024;-73
2023/11/03 07:15:04;;;;;;;11.13;2.50;;;;;;;10.51;100.00;98318.66;5262791;28;20024;-73
2023/11/03 07:17:34;;;;;;;9.85;1.60;;;;;;;10.58;100.00;98330.09;5263509;28;20020;-73
2023/11/03 07:20:08;;;;;;;13.43;1.67;;;;;;;10.73;100.00;98327.00;5262980;28;20035;-74
2023/11/03 07:22:38;;;;;;;8.60;1.10;;;;;;;10.43;100.00;98338.56;5265474;28;20020;-74
2023/11/03 07:25:09;;;;;;;22.25;1.90;;;;;;;10.68;100.00;98326.88;5260162;28;20028;-74
2023/11/03 07:27:40;;;;;;;7.00;1.27;;;;;;;10.84;100.00;98331.59;5265586;28;20099;-73
2023/11/03 07:30:11;;;;;;;6.57;1.65;;;;;;;10.86;100.00;98329.50;5265059;28;20031;-73
2023/11/03 07:32:44;;;;;;;10.90;1.63;;;;;;;10.96;100.00;98339.69;5258744;28;20020;-74
2023/11/03 07:35:15;;;;;;;9.77;1.52;;;;;;;10.97;100.00;98341.31;5251307;28;20066;-72
2023/11/03 07:37:46;;;;;;;7.35;1.42;;;;;;;10.69;100.00;98342.72;5262040;28;20012;-72
2023/11/03 07:40:18;;;;;;;11.70;1.75;;;;;;;10.89;100.00;98358.53;5261298;28;20035;-72
2023/11/03 07:42:49;;;;;;;13.02;3.22;;;;;;;10.88;100.00;98368.47;5261751;28;20481;-73
2023/11/03 07:45:23;;;;;;;8.25;1.45;;;;;;;10.95;100.00;98376.44;5260281;28;20161;-73
2023/11/03 07:47:53;;;;;;;15.30;2.38;;;;;;;10.85;100.00;98378.84;5260489;28;20092;-73
2023/11/03 07:50:26;;;;;;;15.98;1.67;;;;;;;10.90;100.00;98389.72;5260640;28;20058;-72
2023/11/03 07:52:56;;;;;;;9.25;1.95;;;;;;;11.03;100.00;98386.81;5260504;28;20466;-72
2023/11/03 07:55:27;;;;;;;9.13;1.80;;;;;;;11.00;100.00;98392.66;5261115;28;20039;-73
2023/11/03 07:57:57;;;;;;;22.35;2.42;;;;;;;11.02;100.00;98387.88;5256139;28;20469;-72
2023/11/03 08:00:29;;;;;;;15.50;3.50;;;;;;;11.05;100.00;98390.09;5261730;28;20020;-73
2023/11/03 08:02:59;;;;;;;10.32;1.65;;;;;;;10.98;100.00;98391.22;5261798;28;20020;-72
2023/11/03 08:05:30;;;;;;;8.90;1.67;;;;;;;10.96;100.00;98386.09;5257868;28;20024;-73
2023/11/03 08:08:02;;;;;;;18.40;2.10;;;;;;;11.03;100.00;98396.72;5261365;28;20547;-73
2023/11/03 08:10:32;;;;;;;16.85;2.60;;;;;;;11.12;100.00;98392.69;5265990;28;20024;-73
2023/11/03 08:13:04;;;;;;;15.55;2.67;;;;;;;11.27;100.00;98408.34;5259228;28;20032;-74
2023/11/03 08:15:36;;;;;;;12.45;1.52;;;;;;;11.13;100.00;98407.72;5269512;28;20035;-73
2023/11/03 08:18:07;;;;;;;12.93;2.25;;;;;;;11.26;100.00;98410.22;5267840;28;20036;-73
2023/11/03 08:20:38;;;;;;;10.00;2.10;;;;;;;11.44;100.00;98425.41;5276986;28;20038;-73
2023/11/03 08:23:10;;;;;;;16.42;3.20;;;;;;;11.42;100.00;98411.41;5279055;28;20106;-74
2023/11/03 08:25:40;;;;;;;9.48;2.25;;;;;;;11.45;100.00;98419.03;5266682;28;20393;-74
2023/11/03 08:28:12;;;;;;;19.02;2.40;;;;;;;11.61;100.00;98437.13;5266509;28;20027;-73
2023/11/03 08:30:42;;;;;;;10.77;2.10;;;;;;;11.59;100.00;98424.97;5270814;28;20023;-74
2023/11/03 08:33:13;;;;;;;8.68;1.83;;;;;;;11.77;100.00;98438.31;5271518;28;20024;-73
2023/11/03 08:35:45;;;;;;;16.05;2.10;;;;;;;12.11;100.00;98430.53;5271691;28;20038;-74
2023/11/03 08:38:17;;;;;;;15.18;2.65;;;;;;;12.38;100.00;98433.53;5273401;28;20031;-74
2023/11/03 08:40:47;;;;;;;9.88;1.73;;;;;;;12.64;100.00;98424.94;5273363;28;20045;-74
2023/11/03 08:43:20;;;;;;;14.70;2.33;;;;;;;12.93;100.00;98438.41;5276143;28;20015;-74
2023/11/03 08:45:51;;;;;;;14.57;2.30;;;;;;;13.26;100.00;98444.97;5268332;28;20445;-74
2023/11/03 08:48:22;;;;;;;12.63;2.40;;;;;;;13.68;100.00;98446.25;5264266;27;20012;-73
2023/11/03 08:50:54;;;;;;;10.35;1.83;;;;;;;13.81;100.00;98444.28;5264992;28;20027;-73
2023/11/03 08:53:25;;;;;;;16.27;2.60;;;;;;;13.54;100.00;98447.63;5267188;28;20038;-74
2023/11/03 08:55:56;;;;;;;15.00;2.70;;;;;;;13.64;100.00;98457.75;5269895;28;20023;-74
2023/11/03 08:58:27;;;;;;;13.93;2.38;;;;;;;13.34;100.00;98458.03;5273378;28;20097;-73
2023/11/03 09:00:57;;;;;;;14.63;2.08;;;;;;;13.40;100.00;98455.22;5266813;28;20038;-74
2023/11/03 09:03:28;;;;;;;16.95;2.00;;;;;;;13.23;100.00;98458.91;5275860;28;20048;-74
2023/11/03 09:05:59;;;;;;;22.58;9.27;;;;;;;13.29;100.00;98456.06;5272577;28;20031;-73
2023/11/03 09:08:30;;;;;;;11.43;2.22;;;;;;;13.40;100.00;98454.38;5266700;28;20034;-75
2023/11/03 09:11:01;;;;;;;12.13;1.88;;;;;;;13.34;100.00;98463.41;5260524;28;20032;-73
2023/11/03 09:13:32;;;;;;;14.38;3.08;;;;;;;13.21;100.00;98451.91;5268651;28;20043;-72
2023/11/03 09:16:06;;;;;;;12.45;2.35;;;;;;;12.92;100.00;98456.44;5266264;28;20561;-72
2023/11/03 09:18:36;;;;;;;13.60;1.70;;;;;;;13.00;100.00;98459.78;5269631;28;20481;-72
2023/11/03 09:21:07;;;;;;;8.70;1.98;;;;;;;12.75;100.00;98446.66;5263623;28;20069;-72
2023/11/03 09:23:37;;;;;;;12.55;1.55;;;;;;;12.84;100.00;98448.72;5275546;28;20499;-72
2023/11/03 09:26:09;;;;;;;7.88;1.60;;;;;;;12.76;100.00;98449.13;5264065;28;20092;-72
2023/11/03 09:28:39;;;;;;;9.90;1.60;;;;;;;12.86;100.00;98456.59;5270298;28;20392;-72
2023/11/03 09:31:10;;;;;;;8.25;1.88;;;;;;;12.78;100.00;98462.31;5262242;28;20012;-72
2023/11/03 09:33:42;;;;;;;8.95;1.85;;;;;;;12.87;100.00;98466.28;5266487;28;20035;-72
2023/11/03 09:36:14;;;;;;;8.60;2.00;;;;;;;12.36;100.00;98465.22;5269969;28;20036;-73
2023/11/03 09:38:45;;;;;;;13.38;2.10;;;;;;;12.48;100.00;98474.09;5278062;28;20029;-72
2023/11/03 09:41:19;;;;;;;11.52;1.83;;;;;;;12.51;100.00;98470.94;5272668;28;20024;-72
2023/11/03 09:43:51;;;;;;;12.35;2.35;;;;;;;12.66;100.00;98473.94;5271689;28;20070;-72
2023/11/03 09:46:22;;;;;;;17.13;2.50;;;;;;;12.60;100.00;98474.91;5274307;28;20020;-72
2023/11/03 09:48:52;;;;;;;22.58;5.07;;;;;;;12.55;100.00;98485.56;5273122;28;20047;-73
2023/11/03 09:51:24;;;;;;;21.13;3.78;;;;;;;12.65;100.00;98483.06;5270336;28;20477;-72
2023/11/03 09:53:58;;;;;;;15.75;2.15;;;;;;;12.57;100.00;98480.75;5266563;28;20044;-72
2023/11/03 09:56:29;;;;;;;8.75;2.20;;;;;;;12.63;100.00;98489.72;5267925;28;20539;-72
2023/11/03 09:59:00;;;;;;;11.77;2.00;;;;;;;12.66;100.00;98497.34;5269656;28;20032;-72
2023/11/03 10:01:30;;;;;;;15.32;2.38;;;;;;;12.57;100.00;98478.03;5272391;28;20053;-73
2023/11/03 10:04:01;;;;;;;19.08;2.53;;;;;;;12.63;100.00;98487.84;5271995;28;20038;-72
2023/11/03 10:06:32;;;;;;;16.35;2.88;;;;;;;12.86;100.00;98496.94;5267202;28;20069;-72
2023/11/03 10:09:03;;;;;;;13.65;2.53;;;;;;;12.91;100.00;98497.03;5268600;28;20448;-72
2023/11/03 10:11:35;;;;;;;15.90;3.45;;;;;;;12.88;100.00;98501.03;5267166;28;20016;-72
2023/11/03 10:14:06;;;;;;;12.55;2.20;;;;;;;12.73;100.00;98497.19;5260974;28;20040;-72
2023/11/03 10:16:36;;;;;;;18.42;2.92;;;;;;;12.79;100.00;98502.44;5266621;28;20023;-72
2023/11/03 10:19:07;;;;;;;12.98;2.33;;;;;;;12.87;100.00;98510.16;5262268;28;20035;-72
2023/11/03 10:21:38;;;;;;;11.98;2.85;;;;;;;12.81;100.00;98500.34;5267323;28;20032;-72
2023/11/03 10:24:09;;;;;;;15.93;3.45;;;;;;;12.80;100.00;98517.56;5272739;28;20413;-72
2023/11/03 10:26:40;;;;;;;9.20;1.80;;;;;;;12.64;100.00;98511.00;5270620;28;20024;-72
2023/11/03 10:29:12;;;;;;;17.75;4.50;;;;;;;12.68;100.00;98509.47;5263914;28;20054;-73
2023/11/03 10:31:50;;;;;;;18.15;2.17;;;;;;;12.80;100.00;98514.00;5266582;28;20119;-73
2023/11/03 10:34:23;;;;;;;16.73;2.97;;;;;;;12.93;100.00;98525.34;5270244;28;20040;-72
2023/11/03 10:36:56;;;;;;;16.42;3.15;;;;;;;13.00;100.00;98521.69;5273032;28;20038;-73
2023/11/03 10:39:27;;;;;;;14.00;2.30;;;;;;;13.04;100.00;98518.28;5272471;28;20046;-72
2023/11/03 10:42:02;;;;;;;12.38;2.03;;;;;;;12.77;100.00;98520.69;5271538;28;20118;-73
2023/11/03 10:44:37;;;;;;;12.80;2.55;;;;;;;12.93;100.00;98532.59;5272710;28;20027;-72
2023/11/03 10:47:14;;;;;;;12.35;2.70;;;;;;;13.04;100.00;98525.53;5264051;28;20146;-73
2023/11/03 10:49:48;;;;;;;12.18;2.40;;;;;;;13.10;100.00;98533.50;5264527;28;20105;-73
2023/11/03 10:52:28;;;;;;;7.28;1.60;;;;;;;13.02;100.00;98533.06;5269600;28;20117;-72
2023/11/03 10:55:04;;;;;;;15.82;2.20;;;;;;;13.13;100.00;98537.56;5270350;28;20369;-72
2023/11/03 10:57:36;;;;;;;9.07;1.65;;;;;;;13.13;100.00;98530.31;5263110;28;20885;-72
2023/11/03 11:00:21;;;;;;;17.42;2.17;;;;;;;12.91;100.00;98537.41;5263494;28;20054;-72
2023/11/03 11:03:01;;;;;;;10.57;1.83;;;;;;;12.95;100.00;98552.00;5263314;28;20040;-72
2023/11/03 11:05:40;;;;;;;18.33;2.90;;;;;;;12.82;100.00;98544.22;5267655;28;20020;-73
2023/11/03 11:08:12;;;;;;;8.18;2.03;;;;;;;12.92;100.00;98561.38;5265732;28;20664;-72
2023/11/03 11:10:45;;;;;;;9.73;2.13;;;;;;;12.94;100.00;98564.66;5260772;28;20461;-73
2023/11/03 11:13:17;;;;;;;17.10;2.53;;;;;;;13.01;100.00;98569.09;5263403;28;20055;-73
2023/11/03 11:16:04;;;;;;;11.98;2.10;;;;;;;12.92;100.00;98566.78;5258978;28;20509;-73
2023/11/03 11:18:43;;;;;;;11.55;2.72;;;;;;;12.87;100.00;98566.66;5265709;28;20081;-72
2023/11/03 11:21:20;;;;;;;12.27;2.60;;;;;;;12.89;100.00;98564.53;5270166;28;20145;-72
2023/11/03 11:23:51;;;;;;;10.43;1.60;;;;;;;12.86;100.00;98566.91;5261658;28;20035;-72
2023/11/03 11:26:24;;;;;;;12.13;2.15;;;;;;;13.03;100.00;98564.28;5269459;28;20084;-72
2023/11/03 11:28:59;;;;;;;13.68;1.80;;;;;;;13.14;100.00;98569.63;5262564;28;20020;-72
2023/11/03 11:31:30;;;;;;;13.18;2.05;;;;;;;13.24;100.00;98570.94;5269445;28;20022;-72
2023/11/03 11:34:03;;;;;;;8.88;2.00;;;;;;;13.39;100.00;98571.22;5259997;28;20401;-72
2023/11/03 11:36:35;;;;;;;11.73;1.70;;;;;;;13.10;100.00;98583.81;5263377;28;20038;-73
2023/11/03 11:39:06;;;;;;;10.88;2.08;;;;;;;13.06;100.00;98586.19;5262473;28;20024;-73
2023/11/03 11:41:44;;;;;;;6.38;1.77;;;;;;;13.32;100.00;98582.16;5267464;28;20567;-73